Time;durP1;ratioP1;P1;durP2;ratioP2;P2;SDS_P1;SDS_P2;PMS_P1;PMS_P2;Temp;Humidity;BMP_temperature;BMP_pressure;BME280_temperature;BME280_humidity;BME280_pressure;Samples;Min_cycle;Max_cycle;Signal;HPM_P1;HPM_P2
2023/09/10 00:00:54;;;;;;;25.77;16.75;;;;;;;16.99;70.22;100777.33;1750824;82;25372;-60
2023/09/10 00:03:22;;;;;;;25.12;17.98;;;;;;;16.97;70.44;100779.06;1750870;82;26984;-60
2023/09/10 00:05:48;;;;;;;19.15;13.93;;;;;;;16.95;70.58;100775.84;1750694;81;25614;-60
2023/09/10 00:08:14;;;;;;;27.35;14.87;;;;;;;16.93;70.70;100774.61;1750825;82;25433;-60
2023/09/10 00:10:42;;;;;;;19.82;13.22;;;;;;;16.91;70.73;100768.69;1750758;82;25619;-60
2023/09/10 00:13:10;;;;;;;20.05;14.50;;;;;;;16.89;71.13;100769.58;1750826;81;25442;-62
2023/09/10 00:15:36;;;;;;;19.23;13.58;;;;;;;16.85;71.29;100775.51;1750806;82;27616;-63
2023/09/10 00:18:04;;;;;;;16.93;13.00;;;;;;;16.80;71.53;100771.02;1750704;82;27326;-61
2023/09/10 00:20:31;;;;;;;17.85;13.70;;;;;;;16.78;71.31;100773.30;1750865;82;25567;-61
2023/09/10 00:22:57;;;;;;;18.00;12.85;;;;;;;16.76;71.39;100771.48;1750780;82;25530;-59
2023/09/10 00:25:23;;;;;;;23.40;13.05;;;;;;;16.71;71.62;100773.86;1750862;82;25746;-58
2023/09/10 00:27:49;;;;;;;19.92;13.32;;;;;;;16.68;71.71;100776.47;1750813;82;27468;-59
2023/09/10 00:30:16;;;;;;;20.77;14.05;;;;;;;16.66;71.90;100778.17;1750721;81;25893;-59
2023/09/10 00:32:42;;;;;;;23.73;14.35;;;;;;;16.64;72.30;100779.66;1753901;81;25631;-59
2023/09/10 00:35:08;;;;;;;21.90;13.70;;;;;;;16.62;72.11;100776.69;1754080;81;25622;-58
2023/09/10 00:37:34;;;;;;;15.70;12.93;;;;;;;16.59;72.54;100776.57;1754185;81;25379;-60
2023/09/10 00:40:01;;;;;;;19.35;12.98;;;;;;;16.56;72.63;100773.14;1754159;81;27501;-60
2023/09/10 00:42:27;;;;;;;22.67;14.80;;;;;;;16.54;72.44;100765.86;1754107;81;25837;-58
2023/09/10 00:44:53;;;;;;;21.07;14.10;;;;;;;16.52;72.66;100767.56;1754128;81;25600;-60
2023/09/10 00:47:20;;;;;;;18.70;13.93;;;;;;;16.50;73.27;100767.11;1754102;81;25510;-60
2023/09/10 00:49:49;;;;;;;18.98;13.48;;;;;;;16.47;73.27;100762.89;1753164;81;26003;-62
2023/09/10 00:52:17;;;;;;;22.42;13.58;;;;;;;16.44;73.67;100765.14;1753204;81;27486;-59
2023/09/10 00:54:44;;;;;;;22.20;13.90;;;;;;;16.42;74.12;100760.59;1754071;81;25611;-59
2023/09/10 00:57:11;;;;;;;19.45;13.58;;;;;;;16.42;74.26;100765.27;1754175;81;25619;-60
2023/09/10 00:59:38;;;;;;;19.12;13.98;;;;;;;16.43;74.26;100765.50;1754146;81;26129;-59
2023/09/10 01:02:05;;;;;;;18.73;13.22;;;;;;;16.41;74.35;100763.11;1754135;81;25402;-60
2023/09/10 01:04:31;;;;;;;19.40;13.40;;;;;;;16.41;74.25;100763.11;1754169;81;28218;-60
2023/09/10 01:06:58;;;;;;;22.30;14.38;;;;;;;16.42;74.67;100767.99;1754045;81;27376;-60
2023/09/10 01:09:24;;;;;;;25.75;13.18;;;;;;;16.41;74.95;100770.48;1754151;81;25542;-60
2023/09/10 01:12:11;;;;;;;21.40;13.35;;;;;;;16.39;74.73;100772.17;1754118;81;25575;-60
2023/09/10 01:15:03;;;;;;;22.73;13.88;;;;;;;16.38;75.10;100774.70;1754183;81;25605;-60
2023/09/10 01:17:44;;;;;;;21.25;14.18;;;;;;;16.37;74.73;100768.20;1750750;82;27531;-61
2023/09/10 01:20:22;;;;;;;18.62;13.10;;;;;;;16.35;74.87;100768.53;1750595;82;25617;-60
2023/09/10 01:23:04;;;;;;;17.85;13.32;;;;;;;16.34;74.99;100771.02;1741344;81;25469;-60
2023/09/10 01:25:34;;;;;;;20.17;13.60;;;;;;;16.32;74.81;100767.05;1761964;81;25544;-60
2023/09/10 01:28:06;;;;;;;20.77;13.83;;;;;;;16.30;75.34;100766.59;1762265;81;25462;-59
2023/09/10 01:30:32;;;;;;;20.12;13.78;;;;;;;16.28;75.06;100764.20;1731301;82;27495;-60
2023/09/10 01:33:16;;;;;;;19.70;14.40;;;;;;;16.27;75.02;100765.89;1746489;81;25548;-59
2023/09/10 01:35:53;;;;;;;19.23;13.90;;;;;;;16.25;75.09;100764.86;1750429;82;25402;-61
2023/09/10 01:38:30;;;;;;;19.70;13.78;;;;;;;16.23;75.60;100760.31;1750945;82;25574;-61
2023/09/10 01:41:11;;;;;;;20.55;13.70;;;;;;;16.22;75.81;100755.98;1728788;82;25687;-60
2023/09/10 01:43:37;;;;;;;26.17;14.43;;;;;;;16.21;75.83;100762.59;1745185;82;27569;-61
2023/09/10 01:46:05;;;;;;;17.27;14.07;;;;;;;16.19;76.11;100760.19;1750812;82;25458;-60
2023/09/10 01:48:33;;;;;;;20.90;13.90;;;;;;;16.18;76.47;100764.04;1723273;82;25544;-61
2023/09/10 01:51:00;;;;;;;19.32;14.13;;;;;;;16.19;76.42;100762.10;1750845;81;25469;-62
2023/09/10 01:53:26;;;;;;;16.73;13.55;;;;;;;16.18;76.99;100762.67;1750946;82;25605;-60
2023/09/10 01:55:53;;;;;;;22.60;15.03;;;;;;;16.17;76.82;100761.07;1750946;82;27478;-60
2023/09/10 01:58:19;;;;;;;26.95;14.58;;;;;;;16.18;76.91;100753.70;1750794;82;25538;-59
2023/09/10 02:00:45;;;;;;;19.92;13.50;;;;;;;16.17;77.12;100751.52;1750914;82;25363;-60
2023/09/10 02:03:12;;;;;;;20.32;14.43;;;;;;;16.17;77.44;100749.36;1750842;82;25499;-59
2023/09/10 02:05:38;;;;;;;20.43;14.03;;;;;;;16.17;77.71;100752.09;1750939;82;25625;-59
2023/09/10 02:08:06;;;;;;;21.42;14.33;;;;;;;16.16;77.74;100754.61;1750910;81;27478;-59
2023/09/10 02:10:33;;;;;;;26.02;14.55;;;;;;;16.15;77.92;100755.16;1750796;82;25654;-59
2023/09/10 02:13:00;;;;;;;21.35;13.08;;;;;;;16.14;77.70;100751.39;1750894;82;25400;-59
2023/09/10 02:15:28;;;;;;;19.60;13.80;;;;;;;16.14;77.93;100750.03;1750838;82;25564;-60
2023/09/10 02:17:55;;;;;;;20.08;14.13;;;;;;;16.13;77.82;100751.18;1751053;82;25406;-60
2023/09/10 02:20:22;;;;;;;19.05;14.43;;;;;;;16.10;78.28;100752.63;1750884;82;27490;-60
2023/09/10 02:22:48;;;;;;;20.80;14.95;;;;;;;16.09;78.32;100751.05;1750760;82;25532;-60
2023/09/10 02:25:16;;;;;;;23.67;14.10;;;;;;;16.08;78.75;100747.30;1750839;82;25537;-60
2023/09/10 02:27:42;;;;;;;27.52;14.83;;;;;;;16.07;78.85;100750.56;1750871;82;25597;-60
2023/09/10 02:30:14;;;;;;;19.82;13.95;;;;;;;16.06;78.93;100753.08;1722174;82;25482;-60
2023/09/10 02:32:40;;;;;;;23.25;13.85;;;;;;;16.04;79.16;100749.90;1750759;82;27472;-60
2023/09/10 02:35:08;;;;;;;22.13;14.85;;;;;;;16.01;78.88;100754.08;1750757;82;25536;-60
2023/09/10 02:37:34;;;;;;;22.17;13.95;;;;;;;16.00;79.26;100755.20;1750890;82;25589;-59
2023/09/10 02:40:00;;;;;;;18.27;13.70;;;;;;;16.00;79.50;100754.41;1750918;82;25595;-59
2023/09/10 02:42:26;;;;;;;19.65;13.05;;;;;;;15.97;79.42;100753.16;1750984;82;25558;-59
2023/09/10 02:44:53;;;;;;;20.90;13.45;;;;;;;15.97;79.26;100757.80;1750950;81;28104;-60
2023/09/10 02:47:19;;;;;;;22.48;14.03;;;;;;;15.94;79.59;100753.83;1750802;82;25612;-59
2023/09/10 02:49:45;;;;;;;20.50;13.75;;;;;;;15.93;79.47;100762.34;1750821;82;25466;-60
2023/09/10 02:52:11;;;;;;;19.42;14.70;;;;;;;15.91;79.72;100759.16;1750817;82;25552;-60
2023/09/10 02:54:37;;;;;;;16.77;12.55;;;;;;;15.90;79.80;100753.45;1750852;82;25597;-59
2023/09/10 02:57:04;;;;;;;18.60;13.35;;;;;;;15.87;79.59;100753.57;1723020;82;27547;-59
2023/09/10 02:59:30;;;;;;;19.35;14.95;;;;;;;15.86;79.93;100757.42;1750751;82;25536;-60
2023/09/10 03:01:56;;;;;;;20.37;14.05;;;;;;;15.83;80.36;100753.44;1750840;82;25590;-59
2023/09/10 03:04:23;;;;;;;20.62;13.88;;;;;;;15.82;80.38;100749.68;1750784;82;25460;-60
2023/09/10 03:06:50;;;;;;;18.85;13.15;;;;;;;15.78;80.43;100753.64;1750871;82;25538;-60
2023/09/10 03:09:18;;;;;;;24.02;13.72;;;;;;;15.78;80.16;100759.64;1750937;82;27477;-60
2023/09/10 03:11:46;;;;;;;21.27;13.62;;;;;;;15.77;80.63;100757.48;1750811;82;25743;-61
2023/09/10 03:14:12;;;;;;;24.20;13.58;;;;;;;15.74;80.74;100751.30;1750852;82;25402;-61
2023/09/10 03:16:40;;;;;;;17.12;13.72;;;;;;;15.73;80.63;100751.63;1750824;81;25567;-60
2023/09/10 03:19:07;;;;;;;21.70;15.32;;;;;;;15.72;80.78;100756.30;1750878;82;25625;-60
2023/09/10 03:21:35;;;;;;;17.80;13.40;;;;;;;15.71;80.86;100756.05;1750818;82;27576;-60
2023/09/10 03:24:01;;;;;;;18.73;12.67;;;;;;;15.68;80.64;100752.07;1751016;82;25404;-60
2023/09/10 03:26:28;;;;;;;16.65;13.30;;;;;;;15.67;80.91;100746.38;1750850;82;25427;-61
2023/09/10 03:28:54;;;;;;;19.85;13.62;;;;;;;15.65;80.70;100751.94;1750768;82;25483;-59
2023/09/10 03:31:20;;;;;;;18.82;13.32;;;;;;;15.65;81.13;100747.85;1750818;82;25635;-60
2023/09/10 03:33:48;;;;;;;17.00;12.73;;;;;;;15.64;80.75;100744.88;1750867;82;27498;-60
2023/09/10 03:36:14;;;;;;;18.25;13.70;;;;;;;15.63;81.00;100745.45;1750757;82;25766;-61
2023/09/10 03:38:40;;;;;;;16.73;12.90;;;;;;;15.61;80.83;100745.53;1750820;82;25535;-60
2023/09/10 03:41:06;;;;;;;16.52;13.43;;;;;;;15.59;80.75;100742.35;1750803;82;25580;-59
2023/09/10 03:43:32;;;;;;;17.20;12.05;;;;;;;15.57;80.68;100740.53;1750838;82;25563;-60
2023/09/10 03:45:58;;;;;;;16.45;12.47;;;;;;;15.56;80.62;100739.73;1750867;82;28114;-60
2023/09/10 03:48:24;;;;;;;18.75;12.37;;;;;;;15.56;80.39;100749.28;1750761;82;25716;-60
2023/09/10 03:50:51;;;;;;;18.07;12.85;;;;;;;15.56;80.73;100738.92;1750825;82;25557;-60
2023/09/10 03:53:17;;;;;;;15.93;12.35;;;;;;;15.54;80.72;100737.88;1750823;82;25491;-59
2023/09/10 03:55:43;;;;;;;22.00;13.68;;;;;;;15.52;80.88;100734.70;1750956;82;25561;-60
2023/09/10 03:58:10;;;;;;;21.48;13.45;;;;;;;15.50;81.22;100740.48;1750790;82;27514;-59
2023/09/10 04:00:37;;;;;;;18.55;12.37;;;;;;;15.49;81.21;100740.27;1750712;82;25438;-60
2023/09/10 04:03:05;;;;;;;18.57;13.22;;;;;;;15.46;80.94;100739.56;1750827;82;25516;-60
2023/09/10 04:05:31;;;;;;;17.50;13.00;;;;;;;15.45;81.13;100742.03;1750840;82;25556;-60
2023/09/10 04:07:57;;;;;;;18.02;13.83;;;;;;;15.45;81.42;100731.70;1750851;82;25621;-60
2023/09/10 04:10:26;;;;;;;18.52;13.88;;;;;;;15.42;81.63;100735.87;1750956;82;27484;-60
2023/09/10 04:12:52;;;;;;;20.37;12.70;;;;;;;15.40;81.95;100739.50;1750914;81;25426;-60
2023/09/10 04:15:18;;;;;;;17.02;13.60;;;;;;;15.39;81.62;100739.83;1750969;82;25423;-60
2023/09/10 04:17:44;;;;;;;22.42;14.05;;;;;;;15.37;81.90;100740.16;1750931;82;25540;-60
2023/09/10 04:20:11;;;;;;;21.07;13.72;;;;;;;15.37;82.10;100742.88;1751009;82;25387;-60
2023/09/10 04:22:37;;;;;;;19.35;14.30;;;;;;;15.35;82.29;100736.97;1751081;82;27602;-60
2023/09/10 04:25:06;;;;;;;20.45;13.03;;;;;;;15.34;82.49;100737.30;1750978;82;25600;-60
2023/09/10 04:27:32;;;;;;;23.52;14.13;;;;;;;15.35;82.37;100738.34;1751104;82;25601;-61
2023/09/10 04:29:58;;;;;;;19.92;13.35;;;;;;;15.34;82.61;100742.75;1750868;82;25496;-60
2023/09/10 04:32:25;;;;;;;20.02;14.40;;;;;;;15.36;82.67;100737.76;1752054;81;25469;-60
2023/09/10 04:34:52;;;;;;;23.73;13.98;;;;;;;15.36;82.93;100744.03;1754471;81;28112;-60
2023/09/10 04:37:18;;;;;;;21.07;13.98;;;;;;;15.36;83.08;100741.84;1754371;81;25636;-61
2023/09/10 04:39:44;;;;;;;18.05;13.48;;;;;;;15.38;83.08;100745.06;1754439;81;25620;-61
2023/09/10 04:42:10;;;;;;;19.67;13.25;;;;;;;15.38;83.39;100750.52;1754372;81;27622;-61
2023/09/10 04:44:36;;;;;;;19.12;12.98;;;;;;;15.36;83.24;100746.76;1754491;81;25624;-61
2023/09/10 04:47:03;;;;;;;20.15;13.38;;;;;;;15.39;83.40;100748.01;1754430;81;27417;-60
2023/09/10 04:49:30;;;;;;;20.72;14.43;;;;;;;15.42;83.44;100751.44;1754330;81;25422;-60
2023/09/10 04:51:56;;;;;;;18.77;13.60;;;;;;;15.42;83.76;100748.14;1754424;81;25541;-59
2023/09/10 04:54:23;;;;;;;19.32;13.50;;;;;;;15.43;83.66;100739.42;1754387;81;25531;-60
2023/09/10 04:56:53;;;;;;;22.27;13.58;;;;;;;15.45;83.97;100737.16;1754518;81;25377;-61
2023/09/10 04:59:17;;;;;;;19.42;13.85;;;;;;;15.48;83.78;100741.38;1753888;81;27500;-61
2023/09/10 05:01:43;;;;;;;19.98;13.38;;;;;;;15.51;83.94;100734.48;1754346;81;27428;-61
2023/09/10 05:04:09;;;;;;;21.62;13.55;;;;;;;15.54;83.93;100739.25;1754395;81;25536;-61
2023/09/10 05:06:35;;;;;;;21.90;14.03;;;;;;;15.56;83.94;100734.28;1754411;81;25531;-60
2023/09/10 05:09:02;;;;;;;19.17;13.83;;;;;;;15.59;83.99;100736.33;1754450;81;25437;-61
2023/09/10 05:11:28;;;;;;;18.62;12.95;;;;;;;15.62;84.15;100733.52;1754506;81;27502;-59
2023/09/10 05:13:54;;;;;;;21.20;13.75;;;;;;;15.67;84.05;100732.73;1754289;81;25457;-60
2023/09/10 05:16:21;;;;;;;17.55;12.18;;;;;;;15.71;84.22;100734.23;1754370;81;25512;-60
2023/09/10 05:18:47;;;;;;;19.50;13.45;;;;;;;15.74;84.19;100740.39;1754340;81;27728;-59
2023/09/10 05:21:14;;;;;;;20.68;13.72;;;;;;;15.77;84.29;100736.24;1754450;81;25648;-61
2023/09/10 05:23:40;;;;;;;17.20;12.65;;;;;;;15.80;84.27;100741.01;1754397;81;27639;-60
2023/09/10 05:26:06;;;;;;;18.05;13.88;;;;;;;15.85;84.36;100740.27;1754341;81;25630;-61
2023/09/10 05:28:33;;;;;;;21.82;14.25;;;;;;;15.93;84.62;100742.67;1754383;81;25524;-60
2023/09/10 05:31:07;;;;;;;19.42;12.93;;;;;;;16.01;84.64;100744.53;1754358;81;26061;-59
2023/09/10 05:33:34;;;;;;;17.30;12.58;;;;;;;16.08;84.48;100738.53;1754337;81;25552;-60
2023/09/10 05:36:01;;;;;;;19.12;12.73;;;;;;;16.16;84.56;100746.42;1754366;81;29809;-60
2023/09/10 05:38:28;;;;;;;23.73;13.68;;;;;;;16.25;84.56;100745.18;1754322;81;25630;-62
2023/09/10 05:40:56;;;;;;;16.80;13.08;;;;;;;16.35;84.56;100743.97;1754418;81;25598;-61
2023/09/10 05:43:22;;;;;;;16.63;12.33;;;;;;;16.43;84.33;100745.81;1753989;81;25623;-61
2023/09/10 05:45:50;;;;;;;16.73;11.97;;;;;;;16.58;84.20;100758.58;1754447;81;25611;-61
2023/09/10 05:48:16;;;;;;;21.95;13.05;;;;;;;16.59;84.05;100747.31;1754475;81;27550;-61
2023/09/10 05:50:43;;;;;;;16.17;12.82;;;;;;;16.71;84.10;100745.75;1754385;81;25607;-61
2023/09/10 05:53:09;;;;;;;16.35;13.10;;;;;;;16.79;83.85;100749.75;1754368;81;25434;-61
2023/09/10 05:55:40;;;;;;;21.23;12.58;;;;;;;16.91;83.72;100757.77;1754338;81;26138;-61
2023/09/10 05:58:08;;;;;;;21.02;12.82;;;;;;;17.01;83.45;100761.41;1754423;81;25514;-61
2023/09/10 06:00:35;;;;;;;19.48;13.15;;;;;;;17.13;83.31;100760.62;1754387;81;28045;-60
2023/09/10 06:03:02;;;;;;;23.45;12.33;;;;;;;17.25;82.73;100755.72;1754300;81;25726;-60
2023/09/10 06:05:28;;;;;;;20.25;12.65;;;;;;;17.35;82.72;100757.98;1754396;81;25438;-60
2023/09/10 06:07:55;;;;;;;17.82;13.13;;;;;;;17.50;82.54;100761.38;1754319;81;27828;-62
2023/09/10 06:10:21;;;;;;;18.95;12.98;;;;;;;17.65;82.39;100758.48;1754380;81;25375;-60
2023/09/10 06:12:47;;;;;;;19.82;13.60;;;;;;;17.80;82.03;100769.86;1754373;81;27433;-62
2023/09/10 06:15:13;;;;;;;21.82;14.35;;;;;;;17.94;81.90;100759.34;1754289;81;25559;-60
2023/09/10 06:17:40;;;;;;;17.95;11.68;;;;;;;18.08;81.53;100757.03;1754350;81;25418;-60
2023/09/10 06:20:09;;;;;;;15.63;11.80;;;;;;;18.24;80.77;100766.64;1754351;81;25633;-60
2023/09/10 06:22:35;;;;;;;16.97;12.05;;;;;;;18.37;80.72;100763.84;1754547;81;25616;-61
2023/09/10 06:25:01;;;;;;;16.50;11.75;;;;;;;18.56;80.88;100765.34;1754417;81;27496;-61
2023/09/10 06:27:28;;;;;;;20.95;12.35;;;;;;;18.78;80.61;100759.84;1754301;81;25365;-61
2023/09/10 06:29:54;;;;;;;20.75;12.50;;;;;;;18.98;79.35;100759.35;1754366;81;25591;-60
2023/09/10 06:32:20;;;;;;;17.32;12.35;;;;;;;19.13;78.49;100766.56;1754220;81;26063;-60
2023/09/10 06:34:46;;;;;;;16.75;12.13;;;;;;;19.26;77.98;100761.20;1750939;82;25401;-56
2023/09/10 06:37:13;;;;;;;16.80;11.48;;;;;;;19.40;77.99;100758.77;1750885;81;27483;-56
2023/09/10 06:39:39;;;;;;;15.93;11.60;;;;;;;19.63;77.59;100761.41;1750745;82;25799;-54
2023/09/10 06:42:10;;;;;;;17.00;11.50;;;;;;;19.85;78.20;100764.06;1750903;82;25642;-55
2023/09/10 06:44:38;;;;;;;18.12;10.80;;;;;;;20.08;76.86;100762.77;1750880;82;25482;-58
2023/09/10 06:47:07;;;;;;;16.30;11.35;;;;;;;20.24;75.75;100762.08;1750861;82;25651;-58
2023/09/10 06:49:33;;;;;;;18.07;11.68;;;;;;;20.46;76.53;100767.40;1751011;82;27509;-58
2023/09/10 06:51:59;;;;;;;16.97;12.13;;;;;;;20.65;74.65;100768.55;1750710;82;25616;-58
2023/09/10 06:54:26;;;;;;;15.40;12.00;;;;;;;20.82;74.30;100765.89;1750928;82;25394;-58
2023/09/10 06:56:52;;;;;;;16.87;11.95;;;;;;;21.05;74.20;100767.25;1750804;82;25561;-58
2023/09/10 06:59:19;;;;;;;16.07;11.30;;;;;;;21.26;73.82;100765.40;1750909;82;25552;-55
2023/09/10 07:01:45;;;;;;;14.38;11.40;;;;;;;21.57;72.92;100769.82;1750851;82;27492;-57
2023/09/10 07:04:20;;;;;;;19.95;11.30;;;;;;;21.83;72.08;100762.09;1750768;82;25760;-59
2023/09/10 07:06:49;;;;;;;22.75;14.73;;;;;;;22.06;71.84;100765.30;1750866;82;25428;-58
2023/09/10 07:09:22;;;;;;;17.00;11.93;;;;;;;22.33;70.92;100770.75;1750952;82;25648;-62
2023/09/10 07:11:51;;;;;;;16.05;11.50;;;;;;;22.54;69.77;100769.59;1750870;82;25477;-63
2023/09/10 07:14:20;;;;;;;18.23;10.50;;;;;;;22.69;68.58;100775.22;1755569;81;27474;-62
2023/09/10 07:16:48;;;;;;;15.90;11.83;;;;;;;22.91;68.11;100777.58;1739882;82;25826;-61
2023/09/10 07:19:15;;;;;;;16.87;10.88;;;;;;;23.06;68.17;100777.14;1750858;82;25540;-62
2023/09/10 07:21:41;;;;;;;14.40;10.70;;;;;;;23.36;67.58;100775.58;1750832;82;25529;-62
2023/09/10 07:24:09;;;;;;;15.65;10.93;;;;;;;23.67;67.16;100777.53;1750893;81;25564;-61
2023/09/10 07:26:37;;;;;;;16.95;11.55;;;;;;;23.86;66.30;100774.47;1750870;82;27877;-61
2023/09/10 07:29:06;;;;;;;15.72;11.35;;;;;;;24.12;65.52;100769.83;1750769;82;25401;-64
2023/09/10 07:31:35;;;;;;;16.07;11.15;;;;;;;24.41;64.79;100768.52;1751053;82;29617;-67
2023/09/10 07:34:04;;;;;;;26.60;11.30;;;;;;;24.50;62.55;100768.13;1747647;82;35001;-67
2023/09/10 07:36:30;;;;;;;16.40;11.20;;;;;;;24.56;62.75;100762.45;1748889;82;25658;-64
2023/09/10 07:38:57;;;;;;;18.60;11.03;;;;;;;24.80;63.35;100760.88;1748659;82;27505;-67
2023/09/10 07:41:23;;;;;;;18.15;11.25;;;;;;;25.02;61.99;100764.42;1748840;82;25608;-68
2023/09/10 07:43:50;;;;;;;14.75;10.38;;;;;;;25.15;61.21;100757.91;1748920;82;25551;-69
2023/09/10 07:46:17;;;;;;;15.55;11.18;;;;;;;25.51;61.38;100760.62;1748400;82;25666;-69
2023/09/10 07:48:44;;;;;;;15.88;10.15;;;;;;;25.86;61.21;100757.50;1747737;82;25726;-67
2023/09/10 07:51:10;;;;;;;15.10;9.68;;;;;;;26.37;60.88;100758.05;1748392;82;29621;-65
2023/09/10 07:53:36;;;;;;;16.55;11.57;;;;;;;26.88;60.55;100752.94;1748828;82;25399;-68
2023/09/10 11:13:09;;;;;;;11.30;8.03;;;;;;;33.62;33.25;100646.15;1868319;76;25432;-70
2023/09/10 11:15:36;;;;;;;13.78;7.22;;;;;;;33.61;33.21;100650.19;1824290;78;25588;-73
2023/09/10 11:18:37;;;;;;;11.80;7.40;;;;;;;33.57;34.02;100643.31;1824498;78;27504;-67
2023/09/10 11:21:07;;;;;;;22.25;7.83;;;;;;;33.66;33.71;100643.97;1822197;78;25719;-67
2023/09/10 11:23:38;;;;;;;12.43;7.80;;;;;;;33.77;33.70;100641.56;1794936;78;25437;-67
2023/09/10 11:26:19;;;;;;;16.65;8.00;;;;;;;33.96;33.15;100634.61;1824505;78;25386;-71
2023/09/10 11:29:03;;;;;;;19.75;7.15;;;;;;;34.15;33.03;100627.01;1824654;78;25513;-69
2023/09/10 11:31:45;;;;;;;15.28;7.40;;;;;;;34.49;32.64;100627.38;1805414;78;27550;-71
2023/09/10 11:34:31;;;;;;;12.13;8.05;;;;;;;34.41;32.28;100625.52;1824415;78;25421;-67
2023/09/10 11:37:03;;;;;;;15.75;7.25;;;;;;;34.41;32.23;100619.11;1824611;78;25515;-71
2023/09/10 11:39:31;;;;;;;12.53;7.78;;;;;;;34.32;32.11;100618.48;1824439;78;25432;-67
2023/09/10 11:41:59;;;;;;;;;;;;;;;34.18;32.14;100619.84;1827184;78;25555;-69
2023/09/10 11:44:26;;;;;;;21.85;7.95;;;;;;;34.19;32.01;100607.98;1824630;78;27450;-70
2023/09/10 11:46:52;;;;;;;15.83;7.03;;;;;;;34.19;32.36;100608.78;1824376;78;25687;-71
2023/09/10 11:49:23;;;;;;;16.73;9.20;;;;;;;34.47;32.67;100609.45;1824440;78;25607;-72
2023/09/10 11:51:54;;;;;;;21.93;10.00;;;;;;;34.78;32.56;100609.30;1824413;78;25455;-71
2023/09/10 11:54:23;;;;;;;13.58;8.08;;;;;;;35.13;33.18;100604.09;1824518;78;25519;-72
2023/09/10 11:56:56;;;;;;;19.20;10.50;;;;;;;35.39;31.58;100595.92;1824520;78;28230;-70
2023/09/10 11:59:31;;;;;;;19.57;11.22;;;;;;;35.48;31.84;100607.12;1824381;78;25385;-72
2023/09/10 12:01:59;;;;;;;33.65;21.68;;;;;;;35.42;31.75;100597.79;1824459;78;25570;-72
2023/09/10 12:04:33;;;;;;;19.95;10.23;;;;;;;35.74;31.77;100595.45;1824559;78;25392;-72
2023/09/10 12:07:03;;;;;;;14.60;8.48;;;;;;;35.95;30.68;100597.22;1824484;78;25379;-72
2023/09/10 12:09:31;;;;;;;28.80;15.50;;;;;;;35.83;30.26;100599.01;1823801;78;27418;-72
2023/09/10 12:12:08;;;;;;;19.70;8.43;;;;;;;35.73;30.65;100593.28;1824232;78;25329;-65
2023/09/10 12:14:37;;;;;;;15.90;10.37;;;;;;;35.78;30.45;100590.45;1824722;78;25455;-65
2023/09/10 12:17:04;;;;;;;18.37;7.80;;;;;;;35.90;30.91;100587.39;1824517;78;25519;-65
2023/09/10 12:19:32;;;;;;;18.62;9.85;;;;;;;35.80;30.35;100586.53;1824446;78;25566;-65
2023/09/10 12:21:59;;;;;;;14.53;6.62;;;;;;;35.78;31.02;100582.02;1804128;78;27546;-65
2023/09/10 12:24:25;;;;;;;14.55;9.63;;;;;;;35.60;30.20;100582.21;1823731;78;25444;-64
2023/09/10 12:26:52;;;;;;;15.08;7.20;;;;;;;35.68;31.03;100572.81;1823846;78;25428;-64
2023/09/10 12:29:19;;;;;;;15.78;8.20;;;;;;;35.96;30.41;100576.27;1823787;78;25466;-63
2023/09/10 12:31:45;;;;;;;14.47;7.40;;;;;;;36.03;30.83;100571.69;1803284;78;25471;-63
2023/09/10 12:34:14;;;;;;;24.72;12.07;;;;;;;36.24;31.16;100576.86;1823815;78;27485;-63
2023/09/10 12:36:41;;;;;;;20.20;9.80;;;;;;;36.57;31.16;100578.77;1823709;78;25737;-63
2023/09/10 12:39:23;;;;;;;18.65;7.62;;;;;;;36.79;30.50;100577.02;1823957;78;25516;-62
2023/09/10 12:41:54;;;;;;;10.48;6.53;;;;;;;37.03;30.38;100562.05;1821581;78;25381;-63
2023/09/10 12:44:22;;;;;;;12.58;6.35;;;;;;;36.96;29.36;100571.67;1822858;78;25689;-63
2023/09/10 12:46:49;;;;;;;12.37;6.83;;;;;;;36.97;29.63;100570.42;1823379;78;28027;-63
2023/09/10 12:49:16;;;;;;;13.70;6.53;;;;;;;36.97;29.76;100566.19;1823985;78;25670;-63
2023/09/10 12:51:44;;;;;;;15.88;6.53;;;;;;;37.07;29.94;100562.64;1823821;78;25613;-63
2023/09/10 12:54:11;;;;;;;11.30;6.47;;;;;;;37.09;28.97;100567.80;1824021;78;25759;-62
2023/09/10 12:56:38;;;;;;;16.02;6.70;;;;;;;36.69;28.65;100557.84;1823867;78;25540;-63
2023/09/10 12:59:09;;;;;;;13.95;6.80;;;;;;;36.46;29.82;100565.90;1823948;78;27461;-59
2023/09/10 13:01:39;;;;;;;13.43;6.35;;;;;;;36.45;29.61;100555.87;1823726;78;25411;-58
2023/09/10 13:04:07;;;;;;;12.18;6.30;;;;;;;36.20;29.01;100564.19;1803323;78;25596;-59
2023/09/10 13:06:33;;;;;;;10.03;6.03;;;;;;;35.92;29.67;100564.41;1824043;78;25431;-59
2023/09/10 13:09:05;;;;;;;17.95;6.67;;;;;;;35.82;30.13;100561.50;1823769;78;25421;-59
2023/09/10 13:11:33;;;;;;;9.60;6.30;;;;;;;35.74;30.16;100561.70;1823722;78;28111;-58
2023/09/10 13:14:01;;;;;;;16.75;7.78;;;;;;;35.57;29.82;100556.47;1823875;78;25909;-56
2023/09/10 13:16:29;;;;;;;9.63;6.22;;;;;;;35.48;30.19;100571.97;1823977;78;25542;-59
2023/09/10 13:18:56;;;;;;;7.95;5.70;;;;;;;35.33;29.98;100551.58;1786312;78;25613;-59
2023/09/10 13:21:22;;;;;;;12.63;6.83;;;;;;;35.27;30.63;100552.70;1823782;78;25367;-59
2023/09/10 13:23:48;;;;;;;16.93;7.20;;;;;;;35.32;30.29;100557.68;1823798;78;27463;-59
2023/09/10 13:26:14;;;;;;;11.78;6.55;;;;;;;35.39;30.92;100547.48;1823644;78;25405;-56
2023/09/10 13:28:41;;;;;;;11.12;6.45;;;;;;;35.37;30.13;100550.61;1823808;78;25555;-57
2023/09/10 13:31:07;;;;;;;13.98;6.70;;;;;;;35.31;30.03;100549.08;1823740;78;25557;-57
2023/09/10 13:33:33;;;;;;;23.10;7.25;;;;;;;35.03;29.89;100544.17;1823899;78;25551;-57
2023/09/10 13:36:00;;;;;;;13.78;5.45;;;;;;;34.72;30.16;100541.75;1823706;77;27524;-58
2023/09/10 13:38:26;;;;;;;17.62;6.47;;;;;;;34.69;30.52;100543.30;1823703;78;25604;-57
2023/09/10 13:40:56;;;;;;;13.62;5.92;;;;;;;34.75;30.79;100542.22;1823772;78;25478;-58
2023/09/10 13:43:22;;;;;;;17.30;6.92;;;;;;;34.56;30.29;100544.23;1823676;78;25577;-59
2023/09/10 13:45:49;;;;;;;16.45;6.12;;;;;;;34.36;30.39;100525.69;1823795;78;25598;-59
2023/09/10 13:48:15;;;;;;;14.33;7.30;;;;;;;34.24;31.11;100528.80;1823874;78;27517;-58
2023/09/10 13:50:42;;;;;;;18.07;6.35;;;;;;;34.27;30.76;100538.33;1823696;78;25349;-57
2023/09/10 13:53:08;;;;;;;14.10;6.05;;;;;;;34.03;31.26;100527.69;1823752;78;25514;-58
2023/09/10 13:55:34;;;;;;;13.00;6.12;;;;;;;33.92;31.22;100529.56;1823735;78;25577;-56
2023/09/10 13:58:00;;;;;;;13.58;5.95;;;;;;;33.96;31.21;100528.00;1823880;78;25377;-55
2023/09/10 14:00:27;;;;;;;18.32;6.72;;;;;;;33.94;31.40;100526.29;1823815;78;27576;-55
2023/09/10 14:02:53;;;;;;;12.25;6.42;;;;;;;33.71;31.17;100524.84;1823675;78;25707;-62
2023/09/10 14:05:19;;;;;;;11.38;6.17;;;;;;;33.45;31.42;100528.63;1823746;78;25505;-57
2023/09/10 14:07:45;;;;;;;12.03;6.22;;;;;;;33.27;31.44;100520.95;1822411;78;25700;-57
2023/09/10 14:10:11;;;;;;;21.62;7.05;;;;;;;33.23;31.47;100520.92;1822455;78;26001;-58
2023/09/10 14:12:38;;;;;;;11.83;6.90;;;;;;;33.25;31.76;100519.84;1822089;78;27435;-58
2023/09/10 14:15:06;;;;;;;17.85;7.40;;;;;;;33.31;31.65;100523.61;1822155;77;25648;-56
2023/09/10 14:17:32;;;;;;;12.85;6.75;;;;;;;33.13;31.57;100516.67;1822874;78;25614;-57
2023/09/10 14:19:59;;;;;;;20.23;13.45;;;;;;;32.88;31.71;100513.42;1822799;78;27321;-57
2023/09/10 14:22:25;;;;;;;17.50;7.78;;;;;;;32.69;31.65;100519.55;1823288;78;25716;-57
2023/09/10 14:24:51;;;;;;;18.27;7.37;;;;;;;32.36;32.03;100521.28;1823730;77;29633;-57
2023/09/10 14:27:17;;;;;;;12.28;6.20;;;;;;;32.12;32.35;100515.34;1823659;78;25580;-56
2023/09/10 14:29:44;;;;;;;12.37;7.08;;;;;;;32.00;32.89;100519.72;1823730;78;25411;-57
2023/09/10 14:32:10;;;;;;;15.13;7.17;;;;;;;32.06;33.13;100518.55;1823697;77;25441;-56